Time;durP1;ratioP1;P1;durP2;ratioP2;P2;SDS_P1;SDS_P2;PMS_P1;PMS_P2;Temp;Humidity;BMP_temperature;BMP_pressure;BME280_temperature;BME280_humidity;BME280_pressure;Samples;Min_cycle;Max_cycle;Signal;HPM_P1;HPM_P2
2022/03/28 00:01:33;;;;;;;22.13;13.73;;;9.70;99.90;;;;;;5065755;28;20180;-60
2022/03/28 00:03:59;;;;;;;22.17;13.40;;;9.60;99.90;;;;;;5064038;28;20699;-60
2022/03/28 00:06:25;;;;;;;21.40;14.37;;;9.70;99.90;;;;;;5069886;28;20180;-60
2022/03/28 00:08:52;;;;;;;24.27;13.40;;;9.60;99.90;;;;;;5051207;28;20235;-60
2022/03/28 00:11:18;;;;;;;23.90;14.07;;;9.50;99.90;;;;;;5063560;28;20164;-60
2022/03/28 00:13:45;;;;;;;20.13;13.40;;;9.40;99.90;;;;;;5058050;28;20661;-59
2022/03/28 00:16:12;;;;;;;21.67;14.03;;;9.40;99.90;;;;;;5039778;28;20212;-59
2022/03/28 00:18:38;;;;;;;21.27;13.87;;;9.40;99.90;;;;;;5052480;28;20187;-59
2022/03/28 00:21:04;;;;;;;23.57;14.83;;;9.40;99.90;;;;;;5052206;28;20169;-59
2022/03/28 00:23:33;;;;;;;23.80;13.20;;;9.30;99.90;;;;;;5070331;28;20177;-59
2022/03/28 00:25:59;;;;;;;22.80;13.60;;;9.30;99.90;;;;;;5067159;28;20186;-59
2022/03/28 00:28:26;;;;;;;23.07;13.63;;;9.30;99.90;;;;;;5052747;28;20223;-59
2022/03/28 00:30:52;;;;;;;24.93;13.67;;;9.20;99.90;;;;;;5069617;28;20173;-59
2022/03/28 00:33:18;;;;;;;19.17;12.90;;;9.20;99.90;;;;;;5068396;28;20193;-58
2022/03/28 00:35:44;;;;;;;23.30;14.20;;;9.10;99.90;;;;;;5053497;28;20181;-59
2022/03/28 00:38:11;;;;;;;21.17;13.87;;;9.10;99.90;;;;;;5051434;28;20226;-59
2022/03/28 00:40:38;;;;;;;20.90;14.30;;;9.10;99.90;;;;;;5052022;28;20531;-59
2022/03/28 00:43:06;;;;;;;23.00;12.93;;;9.10;99.90;;;;;;5070390;28;20532;-59
2022/03/28 00:45:37;;;;;;;21.30;12.80;;;9.10;99.90;;;;;;5059575;28;20184;-58
2022/03/28 00:48:04;;;;;;;21.30;13.40;;;9.00;99.90;;;;;;5055310;28;20673;-59
2022/03/28 00:50:30;;;;;;;24.03;12.57;;;8.90;99.90;;;;;;5069531;28;20191;-59
2022/03/28 00:52:57;;;;;;;21.03;13.93;;;8.70;99.90;;;;;;5056825;28;20165;-59
2022/03/28 00:55:23;;;;;;;24.47;13.30;;;8.60;99.90;;;;;;5059481;28;20183;-59
2022/03/28 00:57:49;;;;;;;20.60;13.77;;;8.70;99.90;;;;;;5070122;28;20183;-59
2022/03/28 01:00:16;;;;;;;24.87;14.07;;;8.80;99.90;;;;;;5058792;28;20276;-59
2022/03/28 01:02:42;;;;;;;22.93;13.70;;;8.80;99.90;;;;;;5060241;28;20196;-60
2022/03/28 01:05:08;;;;;;;17.07;11.67;;;8.70;99.90;;;;;;5046977;28;20176;-59
2022/03/28 01:07:34;;;;;;;21.03;12.50;;;8.60;99.90;;;;;;5062068;28;20235;-59
2022/03/28 01:10:02;;;;;;;19.57;12.83;;;8.40;99.90;;;;;;5069961;28;20585;-59
2022/03/28 01:12:31;;;;;;;20.70;13.10;;;8.20;99.90;;;;;;5055560;28;20211;-59
2022/03/28 01:14:57;;;;;;;19.30;12.17;;;8.10;99.90;;;;;;5051578;28;20247;-59
2022/03/28 01:20:09;;;;;;;22.00;13.40;;;8.10;99.90;;;;;;5053667;28;20191;-59
2022/03/28 01:22:35;;;;;;;18.80;12.47;;;8.00;99.90;;;;;;5068207;28;20219;-59
2022/03/28 01:25:04;;;;;;;25.93;13.63;;;8.00;99.90;;;;;;5069618;28;20173;-59
2022/03/28 01:27:31;;;;;;;23.60;13.20;;;8.00;99.90;;;;;;5069168;28;20220;-59
2022/03/28 01:29:57;;;;;;;23.57;13.33;;;8.00;99.90;;;;;;5069927;28;20160;-60
2022/03/28 01:32:22;;;;;;;20.53;13.47;;;8.00;99.90;;;;;;5053820;28;20185;-59
2022/03/28 01:34:48;;;;;;;21.20;13.70;;;8.10;99.90;;;;;;5066275;28;20165;-61
2022/03/28 01:37:14;;;;;;;22.90;13.70;;;8.10;99.90;;;;;;5069330;28;20176;-60
2022/03/28 01:39:40;;;;;;;25.60;14.80;;;8.20;99.90;;;;;;5051998;28;20673;-60
2022/03/28 01:42:06;;;;;;;22.77;13.40;;;8.10;99.90;;;;;;5069214;28;20530;-60
2022/03/28 01:44:33;;;;;;;22.53;13.47;;;8.10;99.90;;;;;;5058295;28;20177;-60
2022/03/28 01:46:59;;;;;;;25.97;14.07;;;8.10;99.90;;;;;;5063129;28;20215;-60
2022/03/28 01:49:25;;;;;;;23.70;14.07;;;8.20;99.90;;;;;;5068839;28;20176;-60
2022/03/28 01:51:51;;;;;;;25.00;15.50;;;8.20;99.90;;;;;;5067334;28;20173;-60
2022/03/28 01:54:17;;;;;;;23.43;13.93;;;8.30;99.90;;;;;;5061835;28;20243;-60
2022/03/28 01:56:44;;;;;;;25.97;13.93;;;8.20;99.90;;;;;;5068658;28;20180;-60
2022/03/28 01:59:10;;;;;;;22.13;14.13;;;8.30;99.90;;;;;;5057338;28;20639;-60
2022/03/28 02:01:37;;;;;;;21.57;14.13;;;8.30;99.90;;;;;;5072972;28;20253;-60
2022/03/28 02:04:04;;;;;;;22.37;13.70;;;8.20;99.90;;;;;;5073071;28;20173;-60
2022/03/28 02:06:33;;;;;;;22.87;14.03;;;8.30;99.90;;;;;;5065084;28;20601;-60
2022/03/28 02:08:59;;;;;;;20.87;13.03;;;8.20;99.90;;;;;;5053647;28;20652;-60
2022/03/28 02:11:25;;;;;;;22.00;13.27;;;8.20;99.90;;;;;;5058857;28;20179;-59
2022/03/28 02:13:50;;;;;;;19.30;12.83;;;8.10;99.90;;;;;;5060650;28;20526;-60
2022/03/28 02:16:16;;;;;;;20.87;13.40;;;8.00;99.90;;;;;;5059256;28;20181;-58
2022/03/28 02:18:42;;;;;;;21.47;13.13;;;7.90;99.90;;;;;;5063583;28;20187;-59
2022/03/28 02:21:08;;;;;;;20.00;13.07;;;7.80;99.90;;;;;;5058447;28;20184;-58
2022/03/28 02:23:34;;;;;;;22.20;14.40;;;7.60;99.90;;;;;;5072594;28;20185;-58
2022/03/28 02:26:00;;;;;;;25.10;14.87;;;7.50;99.90;;;;;;5072633;28;20187;-58
2022/03/28 02:28:26;;;;;;;22.10;12.90;;;7.40;99.90;;;;;;5072455;28;20204;-59
2022/03/28 02:30:53;;;;;;;22.87;13.43;;;7.30;99.90;;;;;;5066891;28;20665;-59
2022/03/28 02:33:20;;;;;;;21.60;13.33;;;7.30;99.90;;;;;;5063124;28;20188;-59
2022/03/28 02:35:46;;;;;;;21.43;13.87;;;7.30;99.90;;;;;;5072432;28;20185;-59
2022/03/28 02:38:12;;;;;;;21.07;12.93;;;7.20;99.90;;;;;;5072435;28;20267;-59
2022/03/28 02:40:38;;;;;;;26.27;14.10;;;7.10;99.90;;;;;;5072279;28;20745;-59
2022/03/28 02:43:04;;;;;;;25.10;14.63;;;7.10;99.90;;;;;;5072343;28;20176;-60
2022/03/28 02:45:32;;;;;;;28.73;15.40;;;7.20;99.90;;;;;;5072188;28;20616;-60
2022/03/28 02:47:59;;;;;;;23.80;15.33;;;7.10;99.90;;;;;;5071491;28;20319;-59
2022/03/28 02:50:34;;;;;;;26.87;16.00;;;7.10;99.90;;;;;;5072782;28;20169;-59
2022/03/28 02:53:00;;;;;;;24.43;15.23;;;7.10;99.90;;;;;;5072257;28;20188;-60
2022/03/28 02:55:26;;;;;;;24.03;15.67;;;7.20;99.90;;;;;;5055062;28;20258;-60
2022/03/28 02:57:52;;;;;;;24.87;15.87;;;7.20;99.90;;;;;;5065982;28;20211;-60
2022/03/28 03:00:18;;;;;;;24.17;14.87;;;7.10;99.90;;;;;;5071957;28;20168;-59
2022/03/28 03:02:44;;;;;;;24.30;15.57;;;7.00;99.90;;;;;;5071290;28;20287;-59
2022/03/28 03:05:12;;;;;;;28.87;16.03;;;7.00;99.90;;;;;;5071763;28;20796;-59
2022/03/28 03:07:38;;;;;;;25.97;16.57;;;7.10;99.90;;;;;;5071038;28;20212;-60
2022/03/28 03:10:04;;;;;;;27.53;16.07;;;7.20;99.90;;;;;;5072310;28;20173;-60
2022/03/28 03:12:30;;;;;;;29.60;16.70;;;7.30;99.90;;;;;;5070828;28;20180;-59
2022/03/28 03:14:56;;;;;;;25.50;16.07;;;7.40;99.90;;;;;;5060292;28;20215;-59
2022/03/28 03:17:22;;;;;;;25.70;15.80;;;7.50;99.90;;;;;;5072216;28;20179;-60
2022/03/28 03:19:48;;;;;;;29.30;16.63;;;7.50;99.90;;;;;;5071752;28;20184;-59
2022/03/28 03:22:14;;;;;;;26.10;16.47;;;7.50;99.90;;;;;;5058561;28;20185;-60
2022/03/28 03:24:44;;;;;;;28.77;17.27;;;7.50;99.90;;;;;;5051641;28;20185;-59
2022/03/28 03:27:10;;;;;;;29.17;17.20;;;7.50;99.90;;;;;;5062864;28;20208;-59
2022/03/28 03:29:36;;;;;;;32.07;17.87;;;7.50;99.90;;;;;;5062201;28;20169;-59
2022/03/28 03:32:03;;;;;;;29.17;18.50;;;7.60;99.90;;;;;;5063787;28;20636;-60
2022/03/28 03:34:30;;;;;;;30.63;19.20;;;7.60;99.90;;;;;;5052010;28;20173;-59
2022/03/28 03:36:56;;;;;;;29.77;17.87;;;7.60;99.90;;;;;;5064676;28;20329;-59
2022/03/28 03:39:22;;;;;;;28.67;16.93;;;7.70;99.90;;;;;;5071668;28;20869;-59
2022/03/28 03:41:49;;;;;;;31.90;17.13;;;7.80;99.90;;;;;;5070805;28;20183;-59
2022/03/28 03:44:14;;;;;;;26.83;17.27;;;7.80;99.90;;;;;;5065198;28;20176;-59
2022/03/28 03:46:41;;;;;;;26.00;16.20;;;7.80;99.90;;;;;;5061058;28;20180;-59
2022/03/28 03:49:08;;;;;;;25.90;16.00;;;7.60;99.90;;;;;;5069996;28;20181;-59
2022/03/28 03:51:34;;;;;;;30.73;16.93;;;7.50;99.90;;;;;;5070217;28;20172;-58
2022/03/28 03:54:00;;;;;;;28.80;17.40;;;7.40;99.90;;;;;;5070317;28;20200;-60
2022/03/28 03:56:28;;;;;;;28.73;18.30;;;7.40;99.90;;;;;;5050527;28;20271;-60
2022/03/28 03:58:54;;;;;;;34.67;18.07;;;7.40;99.90;;;;;;5065786;28;20173;-60
2022/03/28 04:01:21;;;;;;;32.50;18.63;;;7.50;99.90;;;;;;5059830;28;20638;-59
2022/03/28 04:03:47;;;;;;;30.20;18.27;;;7.60;99.90;;;;;;5071327;28;20563;-60
2022/03/28 04:06:13;;;;;;;30.40;18.70;;;7.60;99.90;;;;;;5070490;28;20303;-60
2022/03/28 04:08:39;;;;;;;34.90;19.70;;;7.70;99.90;;;;;;5070966;28;20265;-60
2022/03/28 04:11:06;;;;;;;38.10;22.37;;;7.80;99.90;;;;;;5068681;28;20197;-59
2022/03/28 04:13:32;;;;;;;40.13;24.20;;;7.90;99.90;;;;;;5061389;28;20181;-59
2022/03/28 04:15:59;;;;;;;38.03;23.47;;;7.90;99.90;;;;;;5066622;28;20189;-59
2022/03/28 04:18:25;;;;;;;37.73;23.73;;;7.80;99.90;;;;;;5070623;28;20190;-59
2022/03/28 04:20:58;;;;;;;38.53;23.50;;;7.90;99.90;;;;;;5064839;28;20336;-59
2022/03/28 04:23:26;;;;;;;36.57;22.07;;;7.80;99.90;;;;;;5066008;28;20321;-59
2022/03/28 04:25:52;;;;;;;38.60;24.00;;;7.80;99.90;;;;;;5070618;28;20168;-59
2022/03/28 04:28:19;;;;;;;43.13;24.33;;;7.80;99.90;;;;;;5069046;28;20261;-59
2022/03/28 04:30:45;;;;;;;35.60;21.60;;;7.80;99.90;;;;;;5065568;28;20516;-59
2022/03/28 04:33:11;;;;;;;35.30;20.90;;;7.90;99.90;;;;;;5055316;28;20282;-59
2022/03/28 04:35:38;;;;;;;33.53;20.30;;;7.80;99.90;;;;;;5069437;28;20716;-59
2022/03/28 04:38:09;;;;;;;36.40;21.30;;;7.80;99.90;;;;;;5070691;28;20524;-59
2022/03/28 04:40:36;;;;;;;43.00;21.47;;;7.80;99.90;;;;;;5070073;28;20269;-59
2022/03/28 04:43:03;;;;;;;40.90;21.40;;;7.80;99.90;;;;;;5070012;28;20180;-59
2022/03/28 04:45:30;;;;;;;40.53;22.53;;;7.80;99.90;;;;;;5069944;28;20650;-59
2022/03/28 04:47:57;;;;;;;42.87;22.43;;;7.80;99.90;;;;;;5069652;28;20236;-59
2022/03/28 04:50:23;;;;;;;44.80;23.93;;;7.80;99.90;;;;;;5069753;28;20203;-59
2022/03/28 04:52:49;;;;;;;43.80;24.07;;;7.90;99.90;;;;;;5065513;28;20196;-59
2022/03/28 04:55:15;;;;;;;41.83;23.97;;;7.90;99.90;;;;;;5070209;28;20503;-59
2022/03/28 04:57:41;;;;;;;49.20;27.07;;;7.90;99.90;;;;;;5069575;28;20639;-59
2022/03/28 05:00:09;;;;;;;50.20;27.93;;;7.80;99.90;;;;;;5067768;28;20222;-59
2022/03/28 05:02:35;;;;;;;53.70;27.17;;;7.80;99.90;;;;;;5060463;28;20276;-59
2022/03/28 05:05:03;;;;;;;51.47;27.17;;;7.70;99.90;;;;;;5070331;28;20218;-59
2022/03/28 05:07:30;;;;;;;51.33;27.00;;;7.60;99.90;;;;;;5069570;28;20208;-59
2022/03/28 05:09:56;;;;;;;47.07;25.93;;;7.70;99.90;;;;;;5070340;28;20191;-59
2022/03/28 05:12:23;;;;;;;45.03;25.83;;;7.70;99.90;;;;;;5061463;28;20200;-59
2022/03/28 05:14:52;;;;;;;45.60;24.87;;;7.80;99.90;;;;;;5064406;28;20720;-59
2022/03/28 05:17:23;;;;;;;44.40;24.77;;;7.80;99.90;;;;;;5055140;28;20172;-59
2022/03/28 05:19:49;;;;;;;43.80;24.10;;;7.80;99.90;;;;;;5069681;28;20211;-59
2022/03/28 05:22:15;;;;;;;46.67;24.20;;;7.80;99.90;;;;;;5068889;28;20180;-59
2022/03/28 05:24:41;;;;;;;48.03;25.03;;;7.70;99.90;;;;;;5051871;28;20180;-59
2022/03/28 05:27:07;;;;;;;39.10;22.50;;;7.70;99.90;;;;;;5057887;28;20201;-59
2022/03/28 05:29:33;;;;;;;40.80;23.37;;;7.70;99.90;;;;;;5069038;28;20180;-59
2022/03/28 05:31:59;;;;;;;40.20;23.47;;;7.70;99.90;;;;;;5057377;28;20184;-59
2022/03/28 05:34:24;;;;;;;45.03;24.53;;;7.60;99.90;;;;;;5068716;28;20185;-59
2022/03/28 05:36:50;;;;;;;47.40;24.63;;;7.60;99.90;;;;;;5069236;28;20200;-59
2022/03/28 05:39:16;;;;;;;41.43;25.03;;;7.50;99.90;;;;;;5069837;28;20169;-58
2022/03/28 05:41:42;;;;;;;46.83;26.17;;;7.40;99.90;;;;;;5051072;28;20309;-58
2022/03/28 05:44:08;;;;;;;44.07;25.20;;;7.40;99.90;;;;;;5051711;28;20178;-59
2022/03/28 05:46:34;;;;;;;47.83;27.00;;;7.40;99.90;;;;;;5060386;28;20713;-59
2022/03/28 05:48:59;;;;;;;44.97;26.07;;;7.30;99.90;;;;;;5068997;28;20700;-58
2022/03/28 05:51:25;;;;;;;48.83;26.37;;;7.40;99.90;;;;;;5062154;28;20678;-59
2022/03/28 05:53:51;;;;;;;46.50;25.53;;;7.40;99.90;;;;;;5063458;28;20226;-58
2022/03/28 05:56:17;;;;;;;44.70;25.93;;;7.40;99.90;;;;;;5064960;28;20191;-58
2022/03/28 05:58:43;;;;;;;50.33;25.93;;;7.50;99.90;;;;;;5050190;28;20177;-59
2022/03/28 06:01:09;;;;;;;45.53;26.67;;;7.50;99.90;;;;;;5050048;28;20189;-58
2022/03/28 06:03:37;;;;;;;42.30;25.40;;;7.50;99.90;;;;;;5066067;28;20180;-58
2022/03/28 06:06:03;;;;;;;47.80;25.07;;;7.50;99.90;;;;;;5062463;28;20738;-58
2022/03/28 06:08:29;;;;;;;40.63;23.13;;;7.60;99.90;;;;;;5068844;28;20215;-58
2022/03/28 06:10:55;;;;;;;46.13;23.27;;;7.50;99.90;;;;;;5069243;28;20255;-58
2022/03/28 06:13:21;;;;;;;46.67;24.97;;;7.50;99.90;;;;;;5041102;28;20284;-58
2022/03/28 06:15:48;;;;;;;44.80;24.30;;;7.50;99.90;;;;;;5064133;28;20216;-59
2022/03/28 06:18:13;;;;;;;46.33;24.80;;;7.50;99.90;;;;;;5068371;28;20184;-59
2022/03/28 06:20:39;;;;;;;46.83;25.03;;;7.50;99.90;;;;;;5068995;28;20177;-59
2022/03/28 06:23:05;;;;;;;44.23;24.27;;;7.50;99.90;;;;;;5068854;28;20271;-59
2022/03/28 06:25:31;;;;;;;41.47;23.80;;;7.50;99.90;;;;;;5068715;28;20245;-60
2022/03/28 06:27:57;;;;;;;44.23;24.93;;;7.60;99.90;;;;;;5052855;28;20213;-59
2022/03/28 06:30:23;;;;;;;48.70;24.70;;;7.60;99.90;;;;;;5065226;28;20168;-58
2022/03/28 06:32:48;;;;;;;42.27;23.63;;;7.60;99.90;;;;;;5057375;28;20621;-59
2022/03/28 06:35:14;;;;;;;39.83;23.33;;;7.60;99.90;;;;;;5062737;28;20244;-58
2022/03/28 06:37:40;;;;;;;37.27;23.13;;;7.60;99.90;;;;;;5062409;28;20491;-58
2022/03/28 06:40:06;;;;;;;40.33;23.77;;;7.60;99.90;;;;;;5060959;28;20181;-59
2022/03/28 06:42:32;;;;;;;41.57;23.47;;;7.60;99.90;;;;;;5070568;28;20182;-59
2022/03/28 06:45:01;;;;;;;47.30;25.43;;;7.60;99.90;;;;;;5072743;28;20176;-58
2022/03/28 06:47:27;;;;;;;48.57;26.13;;;7.70;99.90;;;;;;5064614;28;20270;-59
2022/03/28 06:49:53;;;;;;;45.87;24.90;;;7.70;99.90;;;;;;5054263;28;20256;-58
2022/03/28 06:52:19;;;;;;;41.87;23.93;;;7.70;99.90;;;;;;5066793;28;20177;-58
2022/03/28 06:54:45;;;;;;;39.97;22.67;;;7.70;99.90;;;;;;5055150;28;20650;-59
2022/03/28 06:57:11;;;;;;;40.53;22.07;;;7.80;99.90;;;;;;5067140;28;20168;-59
2022/03/28 06:59:37;;;;;;;39.53;23.43;;;7.80;99.90;;;;;;5065308;28;20188;-60
2022/03/28 07:02:03;;;;;;;39.37;21.60;;;7.90;99.90;;;;;;5066478;28;20226;-59
2022/03/28 07:04:29;;;;;;;35.83;20.63;;;7.90;99.90;;;;;;5072611;28;20172;-58
2022/03/28 07:06:54;;;;;;;35.57;20.57;;;7.90;99.90;;;;;;5067773;28;20196;-63
2022/03/28 07:09:20;;;;;;;43.57;21.43;;;8.00;99.90;;;;;;5066747;28;20587;-64
2022/03/28 07:11:46;;;;;;;40.87;21.93;;;8.00;99.90;;;;;;5070071;28;20184;-66
2022/03/28 07:14:12;;;;;;;33.77;19.20;;;8.10;99.90;;;;;;5061049;28;20209;-71
2022/03/28 07:16:38;;;;;;;32.70;19.30;;;8.10;99.90;;;;;;5071620;28;20211;-66
2022/03/28 07:19:04;;;;;;;28.33;18.70;;;8.00;99.90;;;;;;5066570;28;20207;-70
2022/03/28 07:21:31;;;;;;;33.67;18.80;;;8.10;99.90;;;;;;5056272;28;20180;-71
2022/03/28 07:23:57;;;;;;;30.33;18.93;;;8.20;99.90;;;;;;5065407;28;20267;-68
2022/03/28 07:26:23;;;;;;;30.40;18.20;;;8.30;99.90;;;;;;5054238;28;20302;-68
2022/03/28 07:28:49;;;;;;;34.27;18.17;;;8.40;99.90;;;;;;5054108;28;20212;-67
2022/03/28 07:31:15;;;;;;;31.67;16.97;;;8.50;99.90;;;;;;5072211;28;20696;-68
2022/03/28 07:33:41;;;;;;;29.37;17.47;;;8.50;99.90;;;;;;5053979;28;20218;-68
2022/03/28 07:36:08;;;;;;;26.73;16.63;;;8.60;99.90;;;;;;5071550;28;20176;-68
2022/03/28 07:38:35;;;;;;;26.23;16.37;;;8.60;99.90;;;;;;5072026;28;20191;-68
2022/03/28 07:41:02;;;;;;;28.17;16.87;;;8.40;99.90;;;;;;5072082;28;20172;-69
2022/03/28 07:43:28;;;;;;;30.17;18.03;;;8.30;99.90;;;;;;5071985;28;20175;-68
2022/03/28 07:45:54;;;;;;;31.17;18.57;;;8.20;99.90;;;;;;5070150;28;20266;-67
2022/03/28 07:48:23;;;;;;;31.63;18.10;;;8.10;99.90;;;;;;5071731;28;20229;-67
2022/03/28 07:50:50;;;;;;;34.03;18.60;;;8.20;99.90;;;;;;5070823;28;20168;-66
2022/03/28 07:53:16;;;;;;;35.77;19.23;;;8.40;99.90;;;;;;5069862;28;20176;-66
2022/03/28 07:55:42;;;;;;;32.13;18.90;;;8.70;99.90;;;;;;5065484;28;20178;-66
2022/03/28 07:58:09;;;;;;;36.90;18.63;;;9.00;99.90;;;;;;5066818;28;20267;-65
2022/03/28 08:00:37;;;;;;;33.23;19.10;;;9.10;99.90;;;;;;5060823;28;20177;-66
2022/03/28 08:03:04;;;;;;;32.60;18.70;;;9.40;99.90;;;;;;5051539;28;20279;-66
2022/03/28 08:05:30;;;;;;;33.53;19.27;;;9.60;99.90;;;;;;5067462;28;20225;-65
2022/03/28 08:07:56;;;;;;;32.20;19.20;;;9.90;99.90;;;;;;5070966;28;20658;-65
2022/03/28 08:10:23;;;;;;;32.50;19.20;;;10.10;99.90;;;;;;5060490;28;20183;-65
2022/03/28 08:12:50;;;;;;;33.37;19.20;;;10.20;99.90;;;;;;5057381;28;20168;-70
2022/03/28 08:15:17;;;;;;;29.80;18.30;;;10.50;99.90;;;;;;5053517;28;20291;-68
2022/03/28 08:17:44;;;;;;;36.50;19.43;;;10.60;99.90;;;;;;5071011;28;20200;-67
2022/03/28 08:20:13;;;;;;;35.17;18.63;;;10.70;99.90;;;;;;5071065;28;20259;-63
2022/03/28 08:22:45;;;;;;;32.27;18.77;;;10.90;99.90;;;;;;5069382;28;20674;-71
2022/03/28 08:25:10;;;;;;;31.40;19.17;;;11.10;99.90;;;;;;5051262;28;20209;-72
2022/03/28 08:27:36;;;;;;;29.60;18.37;;;11.20;99.90;;;;;;5056193;28;20235;-70
2022/03/28 08:30:03;;;;;;;31.53;18.07;;;11.50;99.90;;;;;;5055982;28;20678;-69
2022/03/28 08:32:29;;;;;;;29.70;17.37;;;11.70;99.90;;;;;;5064508;28;20172;-70
2022/03/28 08:34:55;;;;;;;28.70;15.83;;;13.20;99.90;;;;;;5052809;28;20582;-69
2022/03/28 08:37:21;;;;;;;31.65;17.83;;;13.50;99.90;;;;;;5071095;28;20179;-64
2022/03/28 08:39:54;;;;;;;31.65;17.33;;;12.70;99.90;;;;;;5055081;28;20283;-67
2022/03/28 08:42:24;;;;;;;37.05;17.88;;;12.60;99.90;;;;;;5064004;28;20724;-64
2022/03/28 08:44:50;;;;;;;32.03;17.70;;;13.20;99.90;;;;;;5035562;28;20178;-68
2022/03/28 08:47:21;;;;;;;33.70;17.92;;;15.00;99.90;;;;;;5050675;28;20297;-71
2022/03/28 08:49:52;;;;;;;26.13;17.30;;;15.40;99.90;;;;;;5032815;28;20609;-71
2022/03/28 08:52:20;;;;;;;26.75;16.73;;;15.90;99.90;;;;;;5063432;28;20176;-71
2022/03/28 08:54:46;;;;;;;28.40;16.58;;;16.60;99.90;;;;;;5065422;28;20177;-62
2022/03/28 08:57:13;;;;;;;31.48;16.67;;;17.30;99.90;;;;;;5054411;28;20169;-63
2022/03/28 08:59:39;;;;;;;29.60;17.73;;;17.90;99.90;;;;;;5050435;28;20325;-63
2022/03/28 09:02:06;;;;;;;28.33;16.13;;;17.40;99.90;;;;;;5069804;28;20213;-63
2022/03/28 09:04:35;;;;;;;31.45;17.40;;;16.70;99.90;;;;;;5066006;28;20181;-63
2022/03/28 09:07:01;;;;;;;31.38;17.95;;;16.20;99.90;;;;;;5069934;28;20255;-63
2022/03/28 09:09:29;;;;;;;36.08;20.40;;;16.40;99.90;;;;;;5070300;28;20561;-63
2022/03/28 09:12:04;;;;;;;31.38;19.20;;;17.70;99.90;;;;;;5070318;28;20175;-63
2022/03/28 09:14:37;;;;;;;31.77;19.10;;;18.80;99.90;;;;;;5066942;28;20220;-63
2022/03/28 09:17:15;;;;;;;36.92;18.55;;;19.50;99.90;;;;;;5038984;28;20534;-61
2022/03/28 09:19:53;;;;;;;25.60;16.52;;;19.70;99.90;;;;;;5065277;28;20176;-62
2022/03/28 09:22:27;;;;;;;24.98;15.85;;;19.50;99.90;;;;;;5062369;28;20180;-62
2022/03/28 09:24:57;;;;;;;28.17;16.75;;;19.70;99.90;;;;;;5043063;28;20224;-63
2022/03/28 09:27:26;;;;;;;24.35;15.82;;;19.20;99.90;;;;;;5049991;28;20192;-63
2022/03/28 09:29:53;;;;;;;22.33;16.17;;;19.00;99.90;;;;;;5050057;28;20176;-63
2022/03/28 09:32:25;;;;;;;22.55;14.98;;;19.10;99.90;;;;;;5050106;28;20244;-63
2022/03/28 09:35:10;;;;;;;24.00;15.45;;;19.00;99.90;;;;;;5060332;28;20264;-63
2022/03/28 09:37:58;;;;;;;23.80;16.08;;;19.00;99.90;;;;;;5049978;28;20165;-63
2022/03/28 09:40:30;;;;;;;26.80;16.83;;;19.40;99.90;;;;;;5050003;28;20188;-63
2022/03/28 09:42:57;;;;;;;26.70;17.23;;;20.20;99.90;;;;;;5050107;28;20165;-63
2022/03/28 09:45:26;;;;;;;27.10;17.38;;;21.00;99.90;;;;;;5039842;28;20169;-63
2022/03/28 09:48:01;;;;;;;24.70;17.48;;;21.00;99.90;;;;;;5049027;28;20290;-62
2022/03/28 09:50:32;;;;;;;23.95;16.10;;;21.30;99.90;;;;;;5048043;28;20657;-63
2022/03/28 09:53:15;;;;;;;21.77;16.90;;;22.00;99.90;;;;;;5060246;28;20188;-64
2022/03/28 09:55:52;;;;;;;23.90;16.17;;;22.30;99.90;;;;;;5063833;28;20546;-63
2022/03/28 09:58:33;;;;;;;21.00;16.23;;;22.90;99.90;;;;;;5047881;28;20628;-64
2022/03/28 10:00:59;;;;;;;26.17;17.02;;;22.40;99.90;;;;;;5064393;28;20200;-63
2022/03/28 10:03:31;;;;;;;21.42;15.75;;;22.80;99.90;;;;;;5068236;28;20298;-63
2022/03/28 10:06:02;;;;;;;25.25;16.15;;;23.10;99.90;;;;;;5067459;28;20578;-62
2022/03/28 10:08:29;;;;;;;21.70;16.55;;;22.70;99.90;;;;;;5049690;28;20201;-63
2022/03/28 10:10:59;;;;;;;22.35;16.30;;;22.10;99.90;;;;;;5041965;28;20180;-61
2022/03/28 10:13:26;;;;;;;21.85;15.02;;;23.10;99.90;;;;;;5063143;28;20191;-66
2022/03/28 10:15:53;;;;;;;23.60;15.73;;;23.60;99.90;;;;;;5053378;28;20223;-63
2022/03/28 10:18:19;;;;;;;20.92;15.40;;;23.90;99.90;;;;;;5069661;28;20177;-63
2022/03/28 10:20:53;;;;;;;25.35;15.45;;;23.90;99.90;;;;;;5050638;28;20192;-64
2022/03/28 10:23:22;;;;;;;20.15;16.02;;;22.90;99.90;;;;;;5035559;28;20180;-63
2022/03/28 10:25:50;;;;;;;21.00;14.80;;;22.70;99.90;;;;;;5040379;28;20182;-63
2022/03/28 10:28:19;;;;;;;19.67;15.32;;;22.70;99.90;;;;;;5073232;28;20204;-63
2022/03/28 10:30:46;;;;;;;20.92;14.80;;;22.40;99.90;;;;;;5073056;28;20161;-63
2022/03/28 10:33:22;;;;;;;23.35;15.38;;;21.50;99.90;;;;;;5068001;28;20173;-64
2022/03/28 10:36:17;;;;;;;20.67;15.50;;;21.10;99.90;;;;;;5072889;28;20178;-63
2022/03/28 10:38:42;;;;;;;30.80;16.25;;;21.20;99.90;;;;;;5053915;28;20562;-63
2022/03/28 10:41:15;;;;;;;24.17;14.95;;;21.40;99.90;;;;;;5054427;28;20252;-63
2022/03/28 10:43:41;;;;;;;24.45;15.93;;;21.90;99.90;;;;;;5053268;28;20199;-63
2022/03/28 10:46:11;;;;;;;20.95;15.45;;;21.40;99.90;;;;;;5052857;28;20177;-63
2022/03/28 10:48:40;;;;;;;22.65;15.00;;;21.70;99.90;;;;;;5052598;28;20555;-63
2022/03/28 10:51:18;;;;;;;20.38;14.20;;;22.20;99.90;;;;;;5052764;28;20169;-63
2022/03/28 11:00:37;;;;;;;16.83;12.30;;;22.50;99.90;;;;;;5007293;28;20338;-63
2022/03/28 11:03:04;;;;;;;21.48;14.27;;;21.50;99.90;;;;;;5008227;28;20277;-63
2022/03/28 11:05:31;;;;;;;17.98;13.27;;;21.00;99.90;;;;;;4984444;28;20205;-63
2022/03/28 11:08:03;;;;;;;20.67;12.70;;;21.80;99.90;;;;;;4990826;28;20685;-63
2022/03/28 11:10:29;;;;;;;20.95;13.32;;;22.20;99.90;;;;;;4992227;28;20179;-63
2022/03/28 11:13:14;;;;;;;16.80;12.70;;;21.60;99.90;;;;;;5010038;28;20324;-63
2022/03/28 11:15:42;;;;;;;19.90;12.68;;;22.50;99.90;;;;;;5010167;28;20222;-63
2022/03/28 11:18:09;;;;;;;16.17;11.07;;;23.20;99.90;;;;;;5010246;28;20224;-63
2022/03/28 11:20:46;;;;;;;15.98;11.18;;;23.00;99.90;;;;;;5010175;28;20163;-63
2022/03/28 11:23:15;;;;;;;18.60;13.07;;;22.30;99.90;;;;;;5010077;28;20183;-64
2022/03/28 11:25:51;;;;;;;23.10;12.52;;;22.70;99.90;;;;;;5008961;28;20329;-63
2022/03/28 11:28:18;;;;;;;22.02;12.25;;;22.20;99.90;;;;;;5059817;28;20306;-63
2022/03/28 11:30:55;;;;;;;15.10;10.68;;;19.30;99.90;;;;;;5072132;28;20192;-63
2022/03/28 11:33:27;;;;;;;17.48;11.35;;;20.30;99.90;;;;;;5071988;28;20173;-64
2022/03/28 11:36:05;;;;;;;13.75;9.88;;;21.40;99.90;;;;;;5072192;28;20173;-64
2022/03/28 11:38:33;;;;;;;12.05;9.10;;;22.50;99.90;;;;;;5071876;28;20172;-63
2022/03/28 11:41:01;;;;;;;12.85;9.80;;;23.40;99.90;;;;;;5071917;28;20196;-63
2022/03/28 11:43:33;;;;;;;18.50;9.43;;;24.20;99.90;;;;;;5071846;28;20169;-64
2022/03/28 11:46:01;;;;;;;14.98;9.57;;;24.70;99.90;;;;;;5071840;28;20530;-64
2022/03/28 11:48:27;;;;;;;12.70;9.25;;;24.70;99.90;;;;;;5071778;28;20249;-63
2022/03/28 11:50:55;;;;;;;10.57;8.10;;;24.70;99.90;;;;;;5071693;28;21153;-63
2022/03/28 11:59:31;;;;;;;15.00;9.65;;;24.80;99.90;;;;;;5072117;28;20175;-64
2022/03/28 12:02:00;;;;;;;21.73;11.18;;;24.70;99.90;;;;;;5068830;28;20180;-64
2022/03/28 12:04:26;;;;;;;16.05;10.63;;;25.00;99.90;;;;;;5050348;28;20177;-64
2022/03/28 12:06:52;;;;;;;15.40;11.05;;;24.70;99.90;;;;;;5062463;28;20178;-63
2022/03/28 12:09:22;;;;;;;18.23;12.25;;;25.40;99.90;;;;;;5071401;28;20222;-64
2022/03/28 12:11:51;;;;;;;15.75;12.40;;;25.70;99.90;;;;;;5071278;28;20168;-63
2022/03/28 12:14:17;;;;;;;18.75;12.73;;;24.60;99.90;;;;;;5071141;28;20710;-63
2022/03/28 12:16:57;;;;;;;17.50;12.13;;;22.80;99.90;;;;;;5068202;28;20264;-63
2022/03/28 12:19:23;;;;;;;18.17;12.63;;;21.90;99.90;;;;;;5059151;28;20661;-63
2022/03/28 12:21:51;;;;;;;19.13;11.52;;;20.80;99.90;;;;;;5060882;28;20177;-64
2022/03/28 12:24:18;;;;;;;15.82;11.63;;;21.30;99.90;;;;;;5059615;28;20185;-64
2022/03/28 12:26:50;;;;;;;16.15;10.82;;;22.10;99.90;;;;;;5046308;28;20170;-64
2022/03/28 12:29:16;;;;;;;16.30;11.18;;;22.70;99.90;;;;;;5059363;28;20181;-62
2022/03/28 12:31:46;;;;;;;22.27;11.70;;;22.50;99.90;;;;;;5059885;28;20165;-64
2022/03/28 12:34:13;;;;;;;21.42;11.30;;;22.30;99.90;;;;;;5038148;28;20169;-62
2022/03/28 12:36:39;;;;;;;17.90;11.68;;;23.80;99.90;;;;;;5069659;28;20264;-63
2022/03/28 12:39:08;;;;;;;18.90;11.63;;;24.40;99.90;;;;;;5069320;28;20173;-64
2022/03/28 12:41:40;;;;;;;18.05;11.35;;;23.20;99.90;;;;;;5064041;28;20654;-63
2022/03/28 12:44:24;;;;;;;21.08;11.18;;;24.00;99.90;;;;;;5068034;28;20257;-63
2022/03/28 12:46:50;;;;;;;16.70;11.60;;;24.60;99.90;;;;;;5046644;28;20196;-63
2022/03/28 12:49:19;;;;;;;13.10;10.27;;;23.60;99.90;;;;;;5069701;28;20184;-63
2022/03/28 12:51:47;;;;;;;17.20;11.85;;;23.40;99.90;;;;;;5070559;28;20165;-63